Time;durP1;ratioP1;P1;durP2;ratioP2;P2;SDS_P1;SDS_P2;PMS_P1;PMS_P2;Temp;Humidity;BMP_temperature;BMP_pressure;BME280_temperature;BME280_humidity;BME280_pressure;Samples;Min_cycle;Max_cycle;Signal;HPM_P1;HPM_P2
2021/01/31 00:00:24;;;;;;;16.83;10.95;;;;;;;7.43;76.01;99249.91;5028907;28;20050;-69
2021/01/31 00:02:51;;;;;;;14.35;10.02;;;;;;;7.43;75.81;99244.69;5029513;28;20049;-69
2021/01/31 00:05:19;;;;;;;15.20;10.00;;;;;;;7.45;76.01;99239.38;5032737;28;20056;-69
2021/01/31 00:07:45;;;;;;;16.05;9.57;;;;;;;7.47;75.88;99240.09;5032601;28;20053;-71
2021/01/31 00:10:13;;;;;;;13.20;9.20;;;;;;;7.47;75.65;99245.31;5032258;28;20045;-69
2021/01/31 00:12:39;;;;;;;13.68;8.95;;;;;;;7.47;75.85;99234.88;5032629;28;20053;-69
2021/01/31 00:15:08;;;;;;;13.63;8.68;;;;;;;7.49;75.94;99236.44;5032505;28;20045;-69
2021/01/31 00:17:34;;;;;;;10.73;8.27;;;;;;;7.50;75.80;99237.28;5032375;28;20520;-70
2021/01/31 00:20:02;;;;;;;12.30;7.90;;;;;;;7.51;75.87;99241.56;5032394;28;20056;-68
2021/01/31 00:22:28;;;;;;;12.45;8.27;;;;;;;7.52;75.78;99251.88;5032150;28;20049;-70
2021/01/31 00:24:55;;;;;;;11.63;7.57;;;;;;;7.55;75.59;99255.25;5031954;28;20046;-69
2021/01/31 00:27:23;;;;;;;10.75;8.00;;;;;;;7.55;75.84;99261.28;5032692;28;20081;-69
2021/01/31 00:29:51;;;;;;;10.68;7.68;;;;;;;7.56;75.65;99265.56;5032430;28;20054;-76
2021/01/31 00:32:23;;;;;;;12.18;7.45;;;;;;;7.58;75.54;99266.31;5032269;28;20068;-69
2021/01/31 00:34:50;;;;;;;13.20;8.45;;;;;;;7.59;75.37;99262.78;5032549;28;20056;-75
2021/01/31 00:37:17;;;;;;;13.52;9.35;;;;;;;7.61;75.46;99258.25;5032138;28;20050;-70
2021/01/31 00:39:46;;;;;;;13.68;9.20;;;;;;;7.62;75.26;99253.91;5031637;28;20046;-69
2021/01/31 00:42:15;;;;;;;15.82;9.95;;;;;;;7.62;75.22;99254.72;5032155;28;20054;-69
2021/01/31 00:44:45;;;;;;;15.65;9.85;;;;;;;7.62;75.27;99249.50;5032062;28;20049;-69
2021/01/31 00:47:12;;;;;;;13.85;9.30;;;;;;;7.62;75.27;99249.50;5032231;28;20049;-70
2021/01/31 00:49:38;;;;;;;11.38;8.57;;;;;;;7.61;75.37;99250.44;5031901;28;20045;-70
2021/01/31 00:52:04;;;;;;;10.95;8.23;;;;;;;7.62;75.34;99249.50;5031972;28;20842;-74
2021/01/31 00:54:31;;;;;;;12.20;8.50;;;;;;;7.63;75.41;99253.78;5031334;28;20045;-70
2021/01/31 00:56:57;;;;;;;13.23;8.02;;;;;;;7.63;75.47;99250.31;5031758;28;20490;-70
2021/01/31 00:59:23;;;;;;;10.52;7.20;;;;;;;7.64;75.32;99242.41;5031880;28;20084;-71
2021/01/31 01:01:49;;;;;;;11.25;8.07;;;;;;;7.63;75.37;99240.72;5031575;28;20399;-73
2021/01/31 01:04:15;;;;;;;12.18;7.47;;;;;;;7.64;75.54;99238.94;5031703;28;20045;-70
2021/01/31 01:06:42;;;;;;;12.70;7.85;;;;;;;7.64;75.31;99231.13;5031292;28;20085;-70
2021/01/31 01:09:08;;;;;;;11.20;7.10;;;;;;;7.64;75.36;99237.19;5031550;28;20072;-70
2021/01/31 01:11:34;;;;;;;12.77;7.15;;;;;;;7.65;75.64;99232.78;5031881;28;20049;-70
2021/01/31 01:14:00;;;;;;;9.80;6.88;;;;;;;7.65;75.66;99238.81;5031178;28;20056;-71
2021/01/31 01:16:26;;;;;;;9.98;6.75;;;;;;;7.65;75.63;99238.81;5030616;28;20057;-70
2021/01/31 01:18:52;;;;;;;10.90;7.13;;;;;;;7.66;75.90;99242.28;5031461;28;20056;-70
2021/01/31 01:21:19;;;;;;;11.50;6.85;;;;;;;7.66;75.90;99239.69;5031479;28;20481;-70
2021/01/31 01:23:45;;;;;;;10.85;7.05;;;;;;;7.65;75.97;99241.44;5030725;28;20045;-70
2021/01/31 01:26:11;;;;;;;9.98;6.53;;;;;;;7.66;76.14;99250.13;5031135;28;20045;-70
2021/01/31 01:28:37;;;;;;;9.90;6.07;;;;;;;7.66;76.04;99247.50;5030971;28;20552;-71
2021/01/31 01:31:03;;;;;;;10.70;6.47;;;;;;;7.66;76.26;99248.34;5030457;28;20095;-71
2021/01/31 01:33:29;;;;;;;9.20;6.35;;;;;;;7.65;76.41;99251.88;5030630;28;20061;-71
2021/01/31 01:35:56;;;;;;;8.85;6.68;;;;;;;7.65;76.48;99259.72;5033569;28;20045;-71
2021/01/31 01:38:22;;;;;;;11.15;7.30;;;;;;;7.65;76.72;99251.06;5034347;28;20528;-72
2021/01/31 01:40:48;;;;;;;10.18;7.03;;;;;;;7.63;76.67;99248.56;5034139;28;20049;-72
2021/01/31 01:43:19;;;;;;;8.85;6.80;;;;;;;7.63;76.71;99260.75;5034009;28;20489;-73
2021/01/31 01:46:04;;;;;;;11.07;6.63;;;;;;;7.62;76.75;99256.50;5034073;28;20115;-71
2021/01/31 01:48:31;;;;;;;10.52;6.53;;;;;;;7.60;76.93;99259.19;5034169;28;20096;-71
2021/01/31 01:50:57;;;;;;;11.13;7.30;;;;;;;7.60;77.04;99259.19;5034183;28;20053;-71
2021/01/31 01:53:25;;;;;;;12.85;8.70;;;;;;;7.60;77.05;99266.22;5034050;28;20045;-71
2021/01/31 01:56:03;;;;;;;12.80;9.00;;;;;;;7.59;77.19;99264.53;5033937;28;20045;-71
2021/01/31 01:58:30;;;;;;;12.90;9.23;;;;;;;7.58;77.17;99268.94;5033911;28;20042;-71
2021/01/31 02:00:57;;;;;;;15.88;9.85;;;;;;;7.57;77.21;99266.41;5033962;28;20050;-72
2021/01/31 02:03:28;;;;;;;15.52;11.35;;;;;;;7.54;77.21;99266.63;5033745;28;20069;-71
2021/01/31 02:06:01;;;;;;;22.05;15.55;;;;;;;7.51;77.11;99257.22;5033854;28;20482;-71
2021/01/31 02:08:27;;;;;;;22.90;17.38;;;;;;;7.50;77.29;99250.31;5033592;28;20548;-71
2021/01/31 02:10:53;;;;;;;27.85;20.00;;;;;;;7.49;77.40;99246.91;5033871;28;20072;-71
2021/01/31 02:13:20;;;;;;;31.02;21.05;;;;;;;7.47;77.26;99246.16;5033757;28;20054;-71
2021/01/31 02:15:46;;;;;;;29.35;19.92;;;;;;;7.46;77.44;99241.03;5065477;28;20060;-71
2021/01/31 02:18:34;;;;;;;29.83;18.90;;;;;;;7.46;77.29;99243.66;5033387;28;20056;-71
2021/01/31 02:21:07;;;;;;;31.58;19.50;;;;;;;7.44;77.45;99245.53;5033584;28;20053;-71
2021/01/31 02:23:42;;;;;;;34.63;21.30;;;;;;;7.44;77.20;99246.38;5033413;28;20041;-71
2021/01/31 02:26:31;;;;;;;28.57;18.53;;;;;;;7.44;77.23;99253.34;5033456;28;20050;-72
2021/01/31 02:29:03;;;;;;;24.85;16.33;;;;;;;7.40;77.01;99242.28;5032369;28;20045;-71
2021/01/31 02:31:39;;;;;;;21.65;15.88;;;;;;;7.36;77.25;99246.03;5033318;28;20049;-71
2021/01/31 02:34:20;;;;;;;21.73;15.75;;;;;;;7.29;77.09;99235.19;5033294;28;20046;-71
2021/01/31 02:36:50;;;;;;;25.90;17.02;;;;;;;7.22;77.30;99236.53;5033088;28;20141;-71
2021/01/31 02:39:23;;;;;;;22.00;15.95;;;;;;;7.21;77.55;99240.06;5032107;28;20061;-72
2021/01/31 02:42:10;;;;;;;25.10;18.45;;;;;;;7.22;77.56;99240.94;5017079;28;20398;-71
2021/01/31 02:44:41;;;;;;;25.10;18.65;;;;;;;7.19;77.24;99241.97;5033089;28;20057;-71
2021/01/31 02:47:14;;;;;;;28.42;19.80;;;;;;;7.15;77.23;99235.28;5033245;28;20049;-71
2021/01/31 02:49:55;;;;;;;26.80;19.25;;;;;;;7.13;77.53;99240.59;5033028;28;20053;-71
2021/01/31 02:52:33;;;;;;;28.92;20.35;;;;;;;7.13;77.50;99245.81;5032977;28;20445;-71
2021/01/31 02:55:04;;;;;;;28.70;21.27;;;;;;;7.13;77.52;99234.53;5033054;28;20387;-72
2021/01/31 02:58:16;;;;;;;32.08;21.60;;;;;;;7.13;77.61;99230.16;5032751;28;20050;-71
2021/01/31 03:01:04;;;;;;;28.40;21.52;;;;;;;7.15;77.25;99235.28;5030567;28;20045;-71
2021/01/31 03:03:51;;;;;;;27.75;21.05;;;;;;;7.15;77.47;99230.91;5032601;28;20049;-71
2021/01/31 03:06:25;;;;;;;30.90;22.55;;;;;;;7.15;77.27;99233.50;5032846;28;20057;-72
2021/01/31 03:08:57;;;;;;;32.92;22.77;;;;;;;7.13;77.66;99224.94;5032716;28;20464;-71
2021/01/31 03:11:33;;;;;;;30.67;23.13;;;;;;;7.14;77.67;99218.78;5032724;28;20492;-71
2021/01/31 03:14:04;;;;;;;33.10;24.48;;;;;;;7.14;77.58;99218.78;5032449;28;20053;-71
2021/01/31 03:16:41;;;;;;;36.70;23.80;;;;;;;7.14;77.44;99215.34;5032476;28;20058;-72
2021/01/31 03:19:21;;;;;;;35.20;24.40;;;;;;;7.11;77.42;99210.31;5032585;28;20057;-72
2021/01/31 03:21:53;;;;;;;35.03;24.63;;;;;;;7.08;77.41;99213.97;5032373;28;20061;-71
2021/01/31 03:24:35;;;;;;;34.97;25.35;;;;;;;7.05;77.40;99205.50;5032652;28;20042;-72
2021/01/31 03:27:24;;;;;;;36.03;26.50;;;;;;;7.02;77.52;99203.94;5032542;28;20045;-72
2021/01/31 03:29:50;;;;;;;31.10;22.60;;;;;;;7.03;77.80;99198.66;5032450;28;20058;-72
2021/01/31 03:32:24;;;;;;;30.33;22.27;;;;;;;7.06;77.81;99196.75;5031297;28;20054;-71
2021/01/31 03:34:56;;;;;;;28.38;20.40;;;;;;;7.06;77.86;99200.22;5032290;28;20482;-72
2021/01/31 03:37:42;;;;;;;31.38;20.48;;;;;;;7.09;77.64;99199.19;5033224;28;20071;-73
2021/01/31 03:40:09;;;;;;;26.02;18.15;;;;;;;7.11;77.74;99192.91;5038872;28;20486;-71
2021/01/31 03:42:36;;;;;;;23.35;16.80;;;;;;;7.12;77.87;99194.59;5038714;28;20061;-72
2021/01/31 03:45:06;;;;;;;23.35;16.13;;;;;;;7.17;77.72;99186.44;5039256;28;20053;-71
2021/01/31 03:47:37;;;;;;;17.33;14.05;;;;;;;7.16;77.78;99190.84;5038920;28;20060;-72
2021/01/31 03:50:04;;;;;;;16.92;12.77;;;;;;;7.17;77.85;99184.69;5039042;28;20483;-72
2021/01/31 03:52:31;;;;;;;20.48;13.80;;;;;;;7.17;77.86;99183.84;5038778;28;20522;-72
2021/01/31 03:54:58;;;;;;;16.48;12.52;;;;;;;7.16;77.98;99177.78;5038760;28;20048;-72
2021/01/31 03:57:39;;;;;;;15.98;12.02;;;;;;;7.18;78.00;99177.69;5038895;28;20041;-72
2021/01/31 04:00:10;;;;;;;15.57;11.63;;;;;;;7.21;78.30;99174.03;5038953;28;20052;-72
2021/01/31 04:02:47;;;;;;;16.25;11.55;;;;;;;7.22;78.15;99168.69;5035836;28;20120;-72
2021/01/31 04:05:15;;;;;;;15.20;10.70;;;;;;;7.24;78.24;99166.84;5035576;28;20049;-72
2021/01/31 04:07:45;;;;;;;12.95;9.82;;;;;;;7.26;78.26;99172.78;5035331;28;20091;-71
2021/01/31 04:10:14;;;;;;;13.35;9.93;;;;;;;7.27;78.09;99171.81;5035351;28;20052;-72
2021/01/31 04:12:43;;;;;;;13.98;9.48;;;;;;;7.29;78.46;99169.13;5035385;28;20075;-73
2021/01/31 04:15:42;;;;;;;13.13;9.30;;;;;;;7.29;78.47;99164.75;5035481;28;20060;-72
2021/01/31 04:18:10;;;;;;;9.52;7.82;;;;;;;7.31;78.40;99164.63;5035383;28;20425;-73
2021/01/31 04:20:36;;;;;;;11.05;7.78;;;;;;;7.32;78.39;99161.91;5035369;28;20049;-72
2021/01/31 04:23:03;;;;;;;8.68;7.28;;;;;;;7.34;78.36;99161.81;5035150;28;20060;-72
2021/01/31 04:25:29;;;;;;;7.63;6.30;;;;;;;7.35;78.51;99156.50;5034996;28;20041;-71
2021/01/31 04:27:57;;;;;;;8.15;5.82;;;;;;;7.37;78.51;99159.00;5035267;28;20049;-72
2021/01/31 04:30:24;;;;;;;8.48;5.80;;;;;;;7.38;78.59;99151.97;5035314;28;20388;-72
2021/01/31 04:32:50;;;;;;;8.20;5.82;;;;;;;7.40;78.57;99150.13;5035188;28;20045;-71
2021/01/31 04:35:19;;;;;;;9.10;5.35;;;;;;;7.41;78.72;99142.19;5035051;28;20049;-72
2021/01/31 04:37:45;;;;;;;7.03;4.90;;;;;;;7.43;78.81;99148.13;5034866;28;20052;-72
2021/01/31 04:40:13;;;;;;;7.10;4.45;;;;;;;7.43;78.80;99145.53;5035523;28;20057;-71
2021/01/31 04:42:40;;;;;;;5.88;4.55;;;;;;;7.45;78.78;99134.97;5035087;28;20069;-72
2021/01/31 04:45:10;;;;;;;6.22;4.40;;;;;;;7.45;78.99;99129.75;5035487;28;20041;-73
2021/01/31 04:48:11;;;;;;;4.82;3.88;;;;;;;7.48;78.87;99137.38;5035228;28;20564;-72
2021/01/31 04:50:40;;;;;;;5.15;3.90;;;;;;;7.49;78.85;99133.81;5012561;28;20494;-72
2021/01/31 04:53:40;;;;;;;5.32;4.25;;;;;;;7.48;78.89;99133.00;5031937;28;20065;-72
2021/01/31 04:56:24;;;;;;;5.07;3.70;;;;;;;7.49;78.89;99128.59;5027211;28;20051;-72
2021/01/31 04:59:01;;;;;;;4.85;3.63;;;;;;;7.50;79.00;99133.72;5031854;28;20057;-72
2021/01/31 05:01:30;;;;;;;4.38;3.42;;;;;;;7.51;79.03;99134.53;5031649;28;20049;-72
2021/01/31 05:04:26;;;;;;;6.65;3.22;;;;;;;7.50;79.04;99135.47;5031813;28;20049;-71
2021/01/31 05:06:57;;;;;;;4.40;3.35;;;;;;;7.51;79.17;99132.75;5027035;28;20045;-72
2021/01/31 05:09:26;;;;;;;8.13;3.60;;;;;;;7.50;79.17;99136.34;5031458;28;20049;-72
2021/01/31 05:12:10;;;;;;;4.57;3.30;;;;;;;7.51;79.19;99134.53;5031723;28;20057;-72
2021/01/31 05:14:45;;;;;;;4.50;3.60;;;;;;;7.49;79.25;99139.03;5031725;28;20060;-72
2021/01/31 05:17:15;;;;;;;4.73;3.23;;;;;;;7.49;79.06;99141.63;5031388;28;20056;-72
2021/01/31 05:19:41;;;;;;;4.32;3.08;;;;;;;7.48;79.24;99146.03;5031246;28;20363;-72
2021/01/31 05:22:11;;;;;;;5.00;3.22;;;;;;;7.49;79.05;99149.47;5031640;28;20053;-72
2021/01/31 05:24:37;;;;;;;4.10;3.22;;;;;;;7.48;79.33;99148.66;5031649;28;20271;-72
2021/01/31 05:27:05;;;;;;;4.28;3.10;;;;;;;7.48;79.35;99161.69;5031185;28;20392;-72
2021/01/31 05:29:39;;;;;;;6.50;3.88;;;;;;;7.50;79.34;99166.81;5031152;28;20494;-72
2021/01/31 05:32:09;;;;;;;4.30;3.40;;;;;;;7.49;79.32;99165.13;5031353;28;20168;-72
2021/01/31 05:34:37;;;;;;;5.15;4.00;;;;;;;7.49;79.38;99168.59;5031420;28;20064;-71
2021/01/31 05:37:08;;;;;;;4.65;3.53;;;;;;;7.48;79.30;99160.88;5031394;28;20049;-72
2021/01/31 05:39:44;;;;;;;6.30;3.90;;;;;;;7.48;79.31;99171.31;5031062;28;20049;-73
2021/01/31 05:42:14;;;;;;;4.75;3.67;;;;;;;7.47;79.28;99173.06;5031137;28;20119;-72
2021/01/31 05:44:41;;;;;;;8.80;5.97;;;;;;;7.47;79.49;99186.13;5030917;28;20049;-72
2021/01/31 05:47:24;;;;;;;9.77;5.30;;;;;;;7.46;79.33;99184.44;5031119;28;20454;-72
2021/01/31 05:49:53;;;;;;;7.97;5.88;;;;;;;7.45;79.39;99187.16;5030974;28;20068;-72
2021/01/31 05:52:22;;;;;;;11.90;7.22;;;;;;;7.42;79.40;99190.81;5030991;28;20054;-71
2021/01/31 05:54:53;;;;;;;10.30;7.35;;;;;;;7.39;79.04;99191.06;5031029;28;20056;-72
2021/01/31 05:57:35;;;;;;;10.38;7.13;;;;;;;7.37;79.47;99198.13;5030641;28;20073;-72
2021/01/31 06:00:17;;;;;;;10.38;7.78;;;;;;;7.35;79.24;99203.47;5030702;28;20053;-72
2021/01/31 06:03:01;;;;;;;13.15;8.82;;;;;;;7.33;79.27;99204.50;5030547;28;20490;-72
2021/01/31 06:05:29;;;;;;;11.43;8.77;;;;;;;7.31;79.12;99211.59;5030468;28;20052;-72
2021/01/31 06:08:18;;;;;;;13.88;8.82;;;;;;;7.29;79.31;99209.09;5030528;28;20046;-72
2021/01/31 06:10:59;;;;;;;13.57;9.75;;;;;;;7.26;79.20;99216.28;5029891;28;20095;-72
2021/01/31 06:13:25;;;;;;;14.98;10.93;;;;;;;7.23;79.23;99216.50;5030403;28;20502;-71
2021/01/31 06:16:01;;;;;;;16.02;11.13;;;;;;;7.21;79.44;99216.59;5030405;28;20049;-72
2021/01/31 06:18:43;;;;;;;16.75;11.15;;;;;;;7.19;79.36;99216.69;5028899;28;20163;-73
2021/01/31 06:21:16;;;;;;;14.35;10.90;;;;;;;7.20;79.26;99230.59;5030290;28;20052;-72
2021/01/31 06:23:48;;;;;;;19.02;12.95;;;;;;;7.22;79.40;99235.72;5030139;28;20122;-72
2021/01/31 06:26:39;;;;;;;20.27;13.50;;;;;;;7.21;79.17;99232.25;5030354;28;20081;-72
2021/01/31 06:29:21;;;;;;;22.48;14.73;;;;;;;7.18;78.94;99237.69;5010502;28;20883;-72
2021/01/31 06:32:00;;;;;;;22.10;15.43;;;;;;;7.14;78.89;99246.66;5010265;28;20438;-72
2021/01/31 06:34:27;;;;;;;21.00;15.43;;;;;;;7.12;79.06;99251.97;5010281;28;20064;-72
2021/01/31 06:37:14;;;;;;;25.13;17.13;;;;;;;7.09;79.19;99248.75;5010147;28;20065;-73
2021/01/31 06:39:53;;;;;;;20.52;15.85;;;;;;;7.05;79.08;99257.69;5009963;28;20041;-72
2021/01/31 06:42:22;;;;;;;20.90;16.08;;;;;;;7.01;79.30;99268.31;5022016;28;20060;-72
2021/01/31 06:45:06;;;;;;;21.83;16.02;;;;;;;6.95;79.45;99267.91;5029677;28;20048;-72
2021/01/31 06:47:51;;;;;;;22.52;16.95;;;;;;;6.91;79.45;99275.09;5028858;28;20041;-72
2021/01/31 06:50:33;;;;;;;23.55;17.02;;;;;;;6.87;79.61;99281.44;5029836;28;20053;-72
2021/01/31 06:53:11;;;;;;;25.75;18.38;;;;;;;6.87;79.86;99291.88;5010036;28;20065;-71
2021/01/31 06:56:26;;;;;;;25.75;18.90;;;;;;;6.85;79.68;99294.56;5011222;28;20046;-71
2021/01/31 06:59:00;;;;;;;23.80;17.52;;;;;;;6.86;79.91;99298.00;5013401;28;20060;-71
2021/01/31 07:01:45;;;;;;;25.10;17.98;;;;;;;6.82;79.96;99294.75;5029845;28;20045;-71
2021/01/31 07:04:36;;;;;;;25.17;18.08;;;;;;;6.80;80.05;99298.41;5029575;28;20509;-71
2021/01/31 07:07:08;;;;;;;25.35;18.45;;;;;;;6.79;79.99;99307.16;5029623;28;20397;-72
2021/01/31 07:09:37;;;;;;;27.77;18.80;;;;;;;6.82;80.07;99317.41;5029333;28;20041;-72
2021/01/31 07:12:34;;;;;;;24.60;18.75;;;;;;;6.88;80.24;99313.56;5029142;28;20488;-72
2021/01/31 07:15:19;;;;;;;24.15;18.08;;;;;;;6.92;79.78;99315.88;5029467;28;20057;-71
2021/01/31 07:17:56;;;;;;;23.75;17.27;;;;;;;6.93;79.95;99314.94;5029202;28;20057;-71
2021/01/31 07:20:29;;;;;;;26.42;18.10;;;;;;;6.93;80.12;99314.94;5029452;28;20049;-72
2021/01/31 07:23:05;;;;;;;22.85;15.70;;;;;;;6.95;80.04;99320.06;5029083;28;20086;-72
2021/01/31 07:25:36;;;;;;;22.90;15.93;;;;;;;6.96;80.06;99319.13;5029219;28;20046;-71
2021/01/31 07:28:27;;;;;;;20.63;15.10;;;;;;;6.99;80.03;99322.34;5029217;28;20052;-72
2021/01/31 07:31:00;;;;;;;22.65;15.57;;;;;;;7.03;80.09;99328.22;5029013;28;20046;-71
2021/01/31 07:33:54;;;;;;;22.13;15.25;;;;;;;7.06;79.88;99327.16;5028794;28;20052;-72
2021/01/31 07:36:31;;;;;;;20.10;14.65;;;;;;;7.09;79.53;99329.59;5029053;28;20053;-71
2021/01/31 07:39:09;;;;;;;19.98;14.80;;;;;;;7.12;79.74;99337.22;5027936;28;20049;-72
2021/01/31 07:41:49;;;;;;;20.75;15.02;;;;;;;7.12;79.87;99339.81;5029042;28;20054;-71
2021/01/31 07:44:22;;;;;;;20.17;16.05;;;;;;;7.14;79.76;99343.19;5029081;28;20053;-71
2021/01/31 07:46:48;;;;;;;19.50;15.50;;;;;;;7.16;79.83;99347.34;5028820;28;20558;-71
2021/01/31 07:49:14;;;;;;;18.98;14.90;;;;;;;7.18;79.82;99339.41;5029179;28;20046;-71
2021/01/31 07:51:41;;;;;;;18.13;14.18;;;;;;;7.19;79.75;99344.53;5028889;28;20049;-71
2021/01/31 07:54:30;;;;;;;16.77;13.20;;;;;;;7.19;79.86;99346.31;5028982;28;20054;-71
2021/01/31 07:57:18;;;;;;;18.67;13.00;;;;;;;7.21;79.91;99356.66;5027304;28;20049;-71
2021/01/31 07:59:45;;;;;;;17.58;12.63;;;;;;;7.21;79.69;99354.03;5027923;28;20046;-72
2021/01/31 08:02:32;;;;;;;16.95;12.30;;;;;;;7.19;80.06;99354.97;5028647;28;20511;-71
2021/01/31 08:04:59;;;;;;;15.93;11.48;;;;;;;7.18;80.13;99363.72;5028888;28;20053;-71
2021/01/31 08:07:57;;;;;;;15.88;11.63;;;;;;;7.20;80.07;99363.66;5028738;28;20046;-71
2021/01/31 08:10:46;;;;;;;16.33;11.43;;;;;;;7.20;80.14;99361.03;5025720;28;20053;-70
2021/01/31 08:13:35;;;;;;;15.63;11.10;;;;;;;7.23;79.97;99371.25;5027786;28;20107;-70
2021/01/31 08:16:40;;;;;;;16.65;11.93;;;;;;;7.22;80.04;99363.53;5025495;28;20049;-71
2021/01/31 08:19:11;;;;;;;14.45;11.63;;;;;;;7.22;80.07;99359.16;5028568;28;20506;-69
2021/01/31 08:21:52;;;;;;;19.85;11.88;;;;;;;7.23;80.13;99362.63;5028043;28;20072;-70
2021/01/31 08:24:55;;;;;;;16.75;12.13;;;;;;;7.25;80.06;99368.56;5014712;28;20046;-69
2021/01/31 08:27:41;;;;;;;18.65;12.10;;;;;;;7.25;80.13;99372.00;5012608;28;20129;-71
2021/01/31 08:30:28;;;;;;;14.82;10.73;;;;;;;7.27;79.98;99375.34;5012563;28;20126;-72
2021/01/31 08:32:57;;;;;;;14.82;11.43;;;;;;;7.23;79.98;99366.03;5012497;28;20454;-72
2021/01/31 08:35:26;;;;;;;11.65;9.98;;;;;;;7.22;80.08;99369.59;5011276;28;20049;-73
2021/01/31 08:38:42;;;;;;;14.93;10.10;;;;;;;7.26;80.40;99383.28;5012474;28;20053;-69
2021/01/31 08:41:12;;;;;;;12.55;9.75;;;;;;;7.29;80.44;99391.75;5030773;28;20406;-68
2021/01/31 08:43:47;;;;;;;16.25;11.07;;;;;;;7.33;80.32;99395.00;5031559;28;20065;-70
2021/01/31 08:46:13;;;;;;;14.02;10.32;;;;;;;7.36;80.39;99379.13;5031284;28;20045;-70
2021/01/31 08:48:41;;;;;;;16.60;10.43;;;;;;;7.31;80.32;99387.28;5031383;28;20041;-73
2021/01/31 08:51:29;;;;;;;14.43;9.90;;;;;;;7.31;80.43;99387.28;5031334;28;20037;-72
2021/01/31 08:54:04;;;;;;;10.90;8.88;;;;;;;7.34;80.90;99388.84;5028848;28;20049;-69
2021/01/31 08:57:01;;;;;;;10.00;8.27;;;;;;;7.39;80.84;99404.19;5031374;28;20045;-70
2021/01/31 08:59:35;;;;;;;11.25;8.77;;;;;;;7.43;80.86;99413.50;5024752;28;20056;-71
2021/01/31 09:02:14;;;;;;;10.65;7.82;;;;;;;7.44;80.83;99402.97;5031189;28;20041;-69
2021/01/31 09:04:58;;;;;;;12.93;10.40;;;;;;;7.41;80.78;99397.09;5029383;28;20042;-72
2021/01/31 09:07:24;;;;;;;10.75;8.10;;;;;;;7.41;80.89;99413.59;5031438;28;20056;-70
2021/01/31 09:09:57;;;;;;;8.43;7.07;;;;;;;7.44;80.89;99423.00;5030525;28;20052;-69
2021/01/31 09:12:25;;;;;;;9.82;8.02;;;;;;;7.42;80.98;99412.66;5031463;28;20046;-70
2021/01/31 09:15:03;;;;;;;13.93;8.73;;;;;;;7.45;80.89;99422.06;5028483;28;20057;-69
2021/01/31 09:17:29;;;;;;;10.90;8.55;;;;;;;7.42;80.76;99428.31;5030307;28;20049;-66
2021/01/31 09:20:09;;;;;;;12.85;9.05;;;;;;;7.43;81.01;99429.19;5031099;28;20123;-69
2021/01/31 09:22:39;;;;;;;17.75;9.52;;;;;;;7.44;81.07;99431.69;5030554;28;20049;-69
2021/01/31 09:25:07;;;;;;;15.45;10.13;;;;;;;7.46;81.10;99434.19;5030627;28;20052;-71
2021/01/31 09:27:42;;;;;;;16.38;11.10;;;;;;;7.45;81.19;99430.75;5030873;28;20068;-69
2021/01/31 09:30:11;;;;;;;168.93;105.70;;;;;;;7.45;81.11;99440.31;5030981;28;20490;-67
2021/01/31 09:32:46;;;;;;;40.53;28.10;;;;;;;7.45;80.92;99456.00;5030755;28;20083;-67
2021/01/31 09:35:24;;;;;;;30.80;23.53;;;;;;;7.48;81.16;99451.41;5030725;28;20052;-66
2021/01/31 09:37:53;;;;;;;26.60;19.70;;;;;;;7.49;81.04;99453.09;5030960;28;20046;-67
2021/01/31 09:40:20;;;;;;;52.50;38.88;;;;;;;7.45;80.90;99448.16;5031205;28;20052;-66
2021/01/31 09:42:47;;;;;;;55.67;33.60;;;;;;;7.47;81.32;99465.41;5029986;28;20457;-65
2021/01/31 09:45:28;;;;;;;74.60;40.33;;;;;;;7.49;81.18;99462.69;5030262;28;20402;-64
2021/01/31 09:47:55;;;;;;;62.15;43.33;;;;;;;7.51;81.42;99471.25;5030206;28;20041;-66
2021/01/31 09:50:22;;;;;;;68.95;46.20;;;;;;;7.52;81.24;99471.16;5030063;28;20045;-67
2021/01/31 09:52:51;;;;;;;65.85;43.42;;;;;;;7.52;81.43;99471.16;5029805;28;20056;-66
2021/01/31 09:55:32;;;;;;;47.35;31.27;;;;;;;7.56;81.35;99479.63;5029609;28;20049;-66
2021/01/31 09:57:59;;;;;;;35.47;26.95;;;;;;;7.59;81.33;99471.63;5027572;28;20482;-67
2021/01/31 10:00:28;;;;;;;32.85;24.27;;;;;;;7.61;81.26;99471.50;5030337;28;20041;-66
2021/01/31 10:03:00;;;;;;;60.00;42.92;;;;;;;7.62;81.31;99487.06;5030067;28;20049;-67
2021/01/31 10:05:26;;;;;;;76.15;48.08;;;;;;;7.60;81.33;99480.28;5028786;28;20048;-70
2021/01/31 10:08:02;;;;;;;127.60;77.18;;;;;;;7.58;81.28;99471.69;5029298;28;20056;-67
2021/01/31 10:10:42;;;;;;;43.40;30.60;;;;;;;7.62;81.58;99491.47;5027997;28;20106;-66
2021/01/31 10:13:14;;;;;;;96.32;58.08;;;;;;;7.64;81.61;99477.38;5028476;28;20489;-65
2021/01/31 10:15:42;;;;;;;116.57;69.82;;;;;;;7.65;81.59;99483.41;5030126;28;20064;-64
2021/01/31 10:18:12;;;;;;;111.22;66.85;;;;;;;7.68;81.46;99498.88;5030354;28;20057;-64
2021/01/31 10:20:40;;;;;;;124.75;74.03;;;;;;;7.66;81.50;99485.09;5029600;28;20053;-65
2021/01/31 10:23:14;;;;;;;82.05;51.25;;;;;;;7.64;81.55;99493.03;5029891;28;20049;-68
2021/01/31 10:25:55;;;;;;;108.97;63.28;;;;;;;7.66;81.72;99501.59;5030040;28;20220;-64
2021/01/31 10:28:31;;;;;;;74.28;47.75;;;;;;;7.70;81.62;99499.63;5030231;28;20052;-65
2021/01/31 10:30:58;;;;;;;69.43;42.60;;;;;;;7.72;81.64;99505.59;5029817;28;20057;-65
2021/01/31 10:33:49;;;;;;;90.15;54.72;;;;;;;7.76;81.50;99496.63;5029956;28;20409;-64
2021/01/31 10:36:26;;;;;;;87.78;62.85;;;;;;;7.79;81.49;99496.41;5029846;28;20046;-64
2021/01/31 10:38:55;;;;;;;76.03;49.78;;;;;;;7.79;81.48;99496.41;5029950;28;20103;-64
2021/01/31 10:41:22;;;;;;;80.40;54.58;;;;;;;7.79;81.53;99492.97;5029662;28;20048;-64
2021/01/31 10:44:01;;;;;;;59.28;42.10;;;;;;;7.80;81.44;99494.66;5029291;28;20045;-65
2021/01/31 10:46:29;;;;;;;64.25;44.28;;;;;;;7.82;81.60;99495.38;5029770;28;20046;-64
2021/01/31 10:48:55;;;;;;;28.15;12.57;;;;;;;7.93;81.84;99494.69;5028601;28;20041;-63
2021/01/31 10:51:22;;;;;;;42.60;21.58;;;;;;;8.44;82.95;99491.28;5029664;28;20057;-63
2021/01/31 10:53:48;;;;;;;32.85;21.33;;;;;;;8.92;83.86;99491.50;5029495;28;20050;-62
2021/01/31 10:56:14;;;;;;;37.90;24.73;;;;;;;9.31;84.22;99483.56;5029526;28;20053;-62
2021/01/31 10:58:41;;;;;;;41.22;26.33;;;;;;;9.66;84.57;99487.19;5029666;28;20053;-63
2021/01/31 11:01:07;;;;;;;51.47;33.97;;;;;;;9.96;84.91;99484.91;5029316;28;20050;-63
2021/01/31 11:03:34;;;;;;;56.22;35.28;;;;;;;10.21;84.87;99485.69;5034763;28;20049;-63
2021/01/31 11:06:01;;;;;;;49.28;31.10;;;;;;;10.37;84.43;99479.31;5041220;28;20503;-62
2021/01/31 11:08:28;;;;;;;41.97;27.83;;;;;;;10.51;84.04;99489.56;5036151;28;20052;-63
2021/01/31 11:10:55;;;;;;;48.17;30.40;;;;;;;10.65;83.51;99483.28;5035632;28;20068;-63
2021/01/31 11:13:21;;;;;;;43.45;29.92;;;;;;;10.69;82.66;99476.84;5048421;28;20045;-63
2021/01/31 11:15:47;;;;;;;38.35;27.13;;;;;;;10.73;81.77;99475.66;5042103;28;20046;-64
2021/01/31 11:18:14;;;;;;;38.03;25.25;;;;;;;10.78;81.04;99470.06;5043438;28;20846;-70
2021/01/31 11:20:40;;;;;;;36.83;26.88;;;;;;;10.78;80.45;99472.69;5037971;28;20041;-64
2021/01/31 11:23:07;;;;;;;30.67;21.75;;;;;;;10.82;79.78;99468.84;5042271;28;20049;-64
2021/01/31 11:25:33;;;;;;;31.98;24.50;;;;;;;10.85;79.01;99471.22;5041980;28;20037;-63
2021/01/31 11:27:59;;;;;;;33.67;28.45;;;;;;;10.87;78.41;99469.31;5035100;28;20045;-63
2021/01/31 11:30:26;;;;;;;36.15;26.45;;;;;;;10.92;77.63;99472.44;5028916;28;20046;-63
2021/01/31 11:32:52;;;;;;;30.45;22.92;;;;;;;11.00;76.99;99471.81;5028917;28;20057;-63
2021/01/31 11:35:18;;;;;;;29.02;21.38;;;;;;;11.01;76.28;99473.50;5042821;28;20045;-62
2021/01/31 11:37:45;;;;;;;34.13;23.17;;;;;;;11.04;75.96;99468.00;5028968;28;20176;-67
2021/01/31 11:40:11;;;;;;;44.38;33.75;;;;;;;10.83;75.38;99482.81;5028676;28;20052;-68
2021/01/31 11:42:38;;;;;;;47.55;33.22;;;;;;;10.53;75.29;99463.25;5028699;28;20041;-66
2021/01/31 11:45:07;;;;;;;34.92;25.83;;;;;;;10.28;75.46;99480.81;5028795;28;20056;-67
2021/01/31 11:47:34;;;;;;;37.45;28.35;;;;;;;10.09;76.16;99476.13;5021414;28;20041;-67
2021/01/31 11:50:04;;;;;;;38.45;26.55;;;;;;;9.91;76.41;99468.69;5046717;28;20049;-66
2021/01/31 11:52:30;;;;;;;36.63;28.65;;;;;;;9.82;76.69;99473.81;5039413;28;20053;-67
2021/01/31 11:54:56;;;;;;;32.30;27.27;;;;;;;9.71;76.92;99464.09;5028778;28;20060;-67
2021/01/31 11:57:22;;;;;;;34.15;23.25;;;;;;;9.67;77.08;99476.59;5027909;28;20650;-66